Time;durP1;ratioP1;P1;durP2;ratioP2;P2;SDS_P1;SDS_P2;PMS_P1;PMS_P2;Temp;Humidity;BMP_temperature;BMP_pressure;BME280_temperature;BME280_humidity;BME280_pressure;Samples;Min_cycle;Max_cycle;Signal;HPM_P1;HPM_P2
2022/08/02 00:00:16;;;;;;;0.82;0.80;;;;;;;21.23;63.42;96871.91;4896763;29;20078;-80
2022/08/02 00:02:45;;;;;;;1.25;0.77;;;;;;;21.27;63.41;96867.69;4896722;29;20527;-79
2022/08/02 00:05:13;;;;;;;1.05;0.70;;;;;;;21.30;63.75;96867.22;4896992;29;20135;-79
2022/08/02 00:07:41;;;;;;;0.57;0.57;;;;;;;21.35;63.34;96867.28;4896965;29;20135;-79
2022/08/02 00:10:11;;;;;;;0.73;0.73;;;;;;;21.42;63.26;96863.69;4896547;29;20098;-79
2022/08/02 00:12:39;;;;;;;0.80;0.60;;;;;;;21.41;62.70;96862.88;4896829;29;20143;-79
2022/08/02 00:15:10;;;;;;;0.60;0.60;;;;;;;21.35;62.99;96867.28;4896955;29;20052;-80
2022/08/02 00:17:42;;;;;;;2.83;0.70;;;;;;;21.35;62.82;96864.63;4896631;29;20421;-79
2022/08/02 00:20:11;;;;;;;2.78;0.68;;;;;;;21.31;62.23;96860.84;4894446;29;20140;-79
2022/08/02 00:22:39;;;;;;;0.80;0.43;;;;;;;21.22;62.37;96864.19;4895006;29;20063;-78
2022/08/02 00:25:07;;;;;;;0.65;0.40;;;;;;;21.09;62.95;96860.78;4900283;29;20073;-82
2022/08/02 00:27:40;;;;;;;1.25;0.60;;;;;;;20.98;63.21;96865.13;4898044;29;20052;-82
2022/08/02 00:30:10;;;;;;;1.10;0.88;;;;;;;20.88;63.52;96859.69;4896856;29;20104;-80
2022/08/02 00:32:38;;;;;;;0.60;0.60;;;;;;;20.84;63.67;96858.56;4896963;29;20088;-80
2022/08/02 00:35:07;;;;;;;0.73;0.60;;;;;;;20.84;63.30;96858.56;4896576;29;20148;-81
2022/08/02 00:37:38;;;;;;;0.73;0.73;;;;;;;20.81;63.20;96860.88;4896615;29;20139;-80
2022/08/02 00:40:07;;;;;;;0.68;0.50;;;;;;;20.80;63.32;96868.03;4897676;29;20096;-80
2022/08/02 00:42:35;;;;;;;0.63;0.43;;;;;;;20.84;63.42;96850.63;4899839;29;20095;-80
2022/08/02 00:45:02;;;;;;;0.57;0.57;;;;;;;20.91;63.55;96848.59;4899804;29;20082;-80
2022/08/02 00:47:31;;;;;;;0.40;0.38;;;;;;;20.97;64.02;96849.50;4900160;29;20148;-80
2022/08/02 00:49:59;;;;;;;0.90;0.70;;;;;;;21.03;63.25;96851.16;4901215;29;20090;-81
2022/08/02 00:52:26;;;;;;;0.85;0.60;;;;;;;21.07;62.76;96851.47;4903527;29;20076;-80
2022/08/02 00:54:54;;;;;;;0.82;0.50;;;;;;;21.10;62.19;96853.63;4901826;29;20120;-80
2022/08/02 00:57:21;;;;;;;0.30;0.30;;;;;;;21.12;62.62;96860.34;4900021;29;20056;-81
2022/08/02 00:59:49;;;;;;;0.85;0.50;;;;;;;21.12;62.17;96859.50;4899953;29;20056;-80
2022/08/02 01:02:17;;;;;;;0.50;0.50;;;;;;;21.09;62.25;96865.31;4899563;29;20060;-80
2022/08/02 01:04:46;;;;;;;3.15;0.55;;;;;;;21.05;63.01;96864.19;4898123;29;20509;-81
2022/08/02 01:07:14;;;;;;;0.55;0.55;;;;;;;21.05;62.44;96864.19;4897866;29;20076;-81
2022/08/02 01:09:42;;;;;;;0.50;0.50;;;;;;;21.02;62.28;96864.69;4898733;29;20117;-81
2022/08/02 01:12:10;;;;;;;0.98;0.85;;;;;;;20.97;62.25;96868.84;4899566;29;20115;-81
2022/08/02 01:14:41;;;;;;;0.45;0.45;;;;;;;20.97;62.38;96873.34;4898327;29;20056;-81
2022/08/02 01:17:15;;;;;;;2.03;0.63;;;;;;;20.95;62.81;96881.53;4899659;29;20048;-79
2022/08/02 01:19:51;;;;;;;1.85;0.80;;;;;;;20.95;62.58;96878.91;4899256;29;20108;-79
2022/08/02 01:22:38;;;;;;;1.30;0.70;;;;;;;20.90;61.99;96878.81;4911591;29;20572;-80
2022/08/02 01:25:36;;;;;;;0.75;0.43;;;;;;;20.84;62.38;96884.25;4910770;29;20088;-80
2022/08/02 01:28:28;;;;;;;0.80;0.77;;;;;;;20.73;62.46;96891.25;4901028;29;20139;-78
2022/08/02 01:30:59;;;;;;;1.15;0.68;;;;;;;20.65;62.66;96886.34;4880430;29;20088;-79
2022/08/02 01:33:35;;;;;;;1.02;0.77;;;;;;;20.56;62.92;96884.03;4881207;29;20065;-79
2022/08/02 01:36:04;;;;;;;0.88;0.60;;;;;;;20.46;62.91;96883.06;4881218;29;20113;-81
2022/08/02 01:38:37;;;;;;;0.90;0.80;;;;;;;20.38;63.31;96877.09;4906350;29;20048;-78
2022/08/02 01:41:07;;;;;;;0.43;0.43;;;;;;;20.38;63.88;96881.59;4921925;29;20135;-79
2022/08/02 01:43:40;;;;;;;1.55;0.70;;;;;;;20.37;63.29;96880.78;4918694;29;21942;-81
2022/08/02 01:46:08;;;;;;;;;;;;;;;20.34;63.24;96880.47;4919213;29;20146;-80
2022/08/02 01:48:37;;;;;;;1.30;0.70;;;;;;;20.32;63.14;96885.19;4917993;29;19927;-80
2022/08/02 01:51:08;;;;;;;1.00;0.47;;;;;;;20.29;63.20;96883.84;4926582;23;20053;-74
2022/08/02 01:53:37;;;;;;;0.57;0.40;;;;;;;20.33;64.43;96884.16;4898433;29;20064;-74
2022/08/02 01:56:06;;;;;;;1.13;0.60;;;;;;;20.40;64.75;96890.13;4901435;29;20084;-74
2022/08/02 01:58:39;;;;;;;1.10;0.60;;;;;;;20.46;64.06;96894.44;4899278;29;20152;-74
2022/08/02 02:01:09;;;;;;;1.95;0.65;;;;;;;20.45;63.18;96892.06;4898709;29;20080;-74
2022/08/02 02:03:43;;;;;;;3.17;0.70;;;;;;;20.37;63.17;96896.69;4899390;29;20053;-75
2022/08/02 02:06:12;;;;;;;1.83;0.70;;;;;;;20.29;63.29;96891.78;4899144;29;20083;-74
2022/08/02 02:08:41;;;;;;;1.85;0.73;;;;;;;20.15;63.41;96899.19;4899334;29;20049;-74
2022/08/02 02:11:09;;;;;;;2.03;1.10;;;;;;;20.03;63.93;96894.94;4900229;29;20135;-73
2022/08/02 02:14:00;;;;;;;0.43;0.43;;;;;;;19.94;64.20;96905.94;4900361;29;20505;-73
2022/08/02 02:16:30;;;;;;;1.08;0.60;;;;;;;19.86;64.15;96894.91;4899647;29;20564;-73
2022/08/02 02:19:01;;;;;;;0.80;0.80;;;;;;;19.78;64.72;96892.59;4900544;29;20076;-73
2022/08/02 02:21:29;;;;;;;1.98;0.75;;;;;;;19.70;64.61;96901.69;4899208;29;20055;-74
2022/08/02 02:23:58;;;;;;;1.40;0.65;;;;;;;19.64;64.75;96902.63;4898301;29;20474;-73
2022/08/02 02:26:28;;;;;;;0.75;0.63;;;;;;;19.62;64.85;96897.53;4899185;29;20095;-74
2022/08/02 02:29:01;;;;;;;0.80;0.68;;;;;;;19.59;65.05;96899.84;4899242;29;20508;-73
2022/08/02 02:31:32;;;;;;;1.13;0.80;;;;;;;19.56;64.95;96899.25;4887642;29;20131;-74
2022/08/02 02:34:04;;;;;;;1.95;0.60;;;;;;;19.52;65.39;96906.06;4879246;29;20540;-74
2022/08/02 02:36:34;;;;;;;2.75;0.90;;;;;;;19.50;65.26;96894.91;4879697;29;20059;-73
2022/08/02 02:39:05;;;;;;;0.60;0.60;;;;;;;19.49;65.18;96893.28;4879757;29;20568;-74
2022/08/02 02:41:41;;;;;;;1.88;0.88;;;;;;;19.43;65.12;96899.50;4878959;29;20053;-74
2022/08/02 02:44:13;;;;;;;0.80;0.80;;;;;;;19.39;65.38;96894.91;4879797;29;20063;-73
2022/08/02 02:46:41;;;;;;;;;;;;;;;19.37;65.35;96891.69;4880300;29;20088;-73
2022/08/02 02:49:11;;;;;;;1.27;0.80;;;;;;;19.35;65.47;96900.66;4879890;29;19989;-74
2022/08/02 02:51:40;;;;;;;1.70;1.00;;;;;;;19.31;65.28;96894.22;4879234;29;20072;-73
2022/08/02 02:54:09;;;;;;;1.10;0.95;;;;;;;19.29;65.86;96892.84;4879603;29;20088;-73
2022/08/02 02:56:58;;;;;;;0.70;0.50;;;;;;;19.34;65.47;96892.97;4879979;29;20061;-73
2022/08/02 02:59:28;;;;;;;0.80;0.80;;;;;;;19.35;65.34;96895.38;4879620;29;20474;-73
2022/08/02 03:01:56;;;;;;;2.17;0.90;;;;;;;19.35;65.40;96905.16;4878565;29;20498;-73
2022/08/02 03:04:35;;;;;;;0.90;0.90;;;;;;;19.33;65.31;96902.75;4878094;29;20109;-73
2022/08/02 03:07:23;;;;;;;2.20;0.82;;;;;;;19.32;65.15;96898.47;4879602;29;20379;-73
2022/08/02 03:09:51;;;;;;;3.80;1.17;;;;;;;19.29;65.46;96892.84;4879146;29;20430;-74
2022/08/02 03:12:23;;;;;;;1.63;1.02;;;;;;;19.26;65.54;96898.59;4879393;29;20057;-73
2022/08/02 03:15:00;;;;;;;1.95;1.10;;;;;;;19.27;65.73;96890.44;4879321;29;20055;-73
2022/08/02 03:17:37;;;;;;;3.03;0.93;;;;;;;19.34;66.01;96892.97;4879691;29;20092;-73
2022/08/02 03:20:10;;;;;;;1.27;1.15;;;;;;;19.39;65.45;96897.56;4879165;29;20505;-73
2022/08/02 03:22:38;;;;;;;1.17;0.85;;;;;;;19.42;65.56;96899.75;4879288;29;20053;-74
2022/08/02 03:25:07;;;;;;;0.98;0.98;;;;;;;19.43;65.48;96898.72;4879729;29;20403;-73
2022/08/02 03:27:34;;;;;;;0.88;0.88;;;;;;;19.49;65.59;96889.84;4880517;29;20077;-73
2022/08/02 03:30:05;;;;;;;2.22;0.65;;;;;;;19.56;65.76;96891.31;4879329;29;20107;-72
2022/08/02 03:32:33;;;;;;;0.85;0.85;;;;;;;19.61;65.17;96895.91;4876528;29;20136;-73
2022/08/02 03:35:01;;;;;;;0.98;0.90;;;;;;;19.65;65.54;96896.28;4878796;29;20136;-73
2022/08/02 03:37:30;;;;;;;0.93;0.80;;;;;;;19.70;65.69;96896.41;4872237;29;20551;-73
2022/08/02 03:39:58;;;;;;;0.95;0.93;;;;;;;19.73;64.80;96896.75;4878485;29;20147;-72
2022/08/02 03:42:27;;;;;;;2.00;0.82;;;;;;;19.75;65.03;96893.88;4883253;29;20057;-73
2022/08/02 03:44:55;;;;;;;1.13;0.93;;;;;;;19.72;64.83;96897.81;4878713;29;20076;-73
2022/08/02 03:47:25;;;;;;;1.15;0.50;;;;;;;19.71;65.66;96893.53;4878850;29;20139;-73
2022/08/02 03:49:54;;;;;;;0.98;0.90;;;;;;;19.72;64.95;96895.16;4882584;29;20128;-75
2022/08/02 03:52:22;;;;;;;0.90;0.75;;;;;;;19.72;65.16;96899.63;4878673;29;20152;-73
2022/08/02 03:54:50;;;;;;;2.05;1.35;;;;;;;19.73;64.76;96902.03;4877977;29;20135;-73
2022/08/02 03:57:18;;;;;;;1.05;1.00;;;;;;;19.74;64.53;96900.19;4878592;29;20131;-73
2022/08/02 03:59:46;;;;;;;0.93;0.75;;;;;;;19.74;65.09;96903.66;4878316;29;20127;-73
2022/08/02 04:02:14;;;;;;;2.47;1.00;;;;;;;19.74;64.78;96911.59;4878126;29;20063;-73
2022/08/02 04:04:43;;;;;;;1.60;0.90;;;;;;;19.74;64.59;96903.66;4878332;29;20532;-73
2022/08/02 04:07:10;;;;;;;1.30;1.20;;;;;;;19.74;64.44;96903.66;4883091;29;20674;-73
2022/08/02 04:09:38;;;;;;;3.35;1.45;;;;;;;19.76;64.37;96912.16;4878012;29;20081;-73
2022/08/02 04:12:06;;;;;;;8.77;1.05;;;;;;;19.75;64.31;96915.84;4877496;29;20544;-73
2022/08/02 04:14:34;;;;;;;0.77;0.77;;;;;;;19.72;64.44;96913.69;4878180;29;20061;-73
2022/08/02 04:17:07;;;;;;;0.88;0.85;;;;;;;19.73;64.62;96914.47;4863348;29;20046;-74
2022/08/02 04:19:38;;;;;;;1.83;1.10;;;;;;;19.68;63.93;96912.50;4863443;29;20084;-73
2022/08/02 04:22:13;;;;;;;1.60;1.05;;;;;;;19.64;64.14;96908.69;4889793;29;20084;-73
2022/08/02 04:24:47;;;;;;;2.90;0.75;;;;;;;19.63;65.00;96914.22;4900723;29;20132;-74
2022/08/02 04:27:18;;;;;;;2.95;0.85;;;;;;;19.65;64.49;96910.31;4863929;29;20537;-74
2022/08/02 04:30:07;;;;;;;2.00;0.98;;;;;;;19.68;64.24;96909.84;4865705;29;20056;-75
2022/08/02 04:32:35;;;;;;;2.30;1.05;;;;;;;19.69;63.71;96916.78;4882182;29;20132;-76
2022/08/02 04:35:03;;;;;;;2.90;1.25;;;;;;;19.62;63.73;96921.38;4882286;29;20149;-74
2022/08/02 04:37:49;;;;;;;6.72;1.20;;;;;;;19.53;64.06;96920.91;4881907;29;20108;-74
2022/08/02 04:40:37;;;;;;;2.35;1.20;;;;;;;19.47;64.01;96929.75;4877915;29;20045;-73
2022/08/02 04:43:04;;;;;;;0.70;0.70;;;;;;;19.41;64.30;96928.03;4882538;29;20128;-74
2022/08/02 04:45:32;;;;;;;0.82;0.80;;;;;;;19.37;64.62;96931.38;4879507;29;20135;-74
2022/08/02 04:48:00;;;;;;;1.90;1.10;;;;;;;19.31;64.51;96933.91;4877899;29;20073;-74
2022/08/02 04:50:31;;;;;;;1.05;0.75;;;;;;;19.25;64.81;96931.38;4873865;29;20061;-74
2022/08/02 04:53:00;;;;;;;1.02;1.02;;;;;;;19.25;65.36;96937.44;4863052;29;20532;-74
2022/08/02 04:55:28;;;;;;;1.10;1.00;;;;;;;19.28;65.66;96936.19;4865311;29;20124;-74
2022/08/02 04:57:57;;;;;;;0.85;0.85;;;;;;;19.32;65.75;96930.22;4882844;29;20049;-73
2022/08/02 05:00:26;;;;;;;0.98;0.98;;;;;;;19.39;65.63;96931.94;4880621;29;20053;-73
2022/08/02 05:02:55;;;;;;;0.90;0.90;;;;;;;19.45;65.99;96941.59;4878766;29;20049;-74
2022/08/02 05:05:23;;;;;;;1.08;1.08;;;;;;;19.49;65.27;96948.84;4880503;29;20087;-73
2022/08/02 05:07:51;;;;;;;2.03;0.90;;;;;;;19.52;65.56;96945.75;4898937;29;20076;-74
2022/08/02 05:10:20;;;;;;;2.20;1.27;;;;;;;19.55;64.99;96952.44;4891765;29;20088;-75
2022/08/02 05:12:47;;;;;;;2.33;1.60;;;;;;;19.57;65.98;96955.66;4880065;29;20167;-74
2022/08/02 05:15:17;;;;;;;5.43;3.15;;;;;;;19.59;65.44;96950.94;4881628;29;20148;-74
2022/08/02 05:17:46;;;;;;;6.18;2.03;;;;;;;19.61;65.76;96954.13;4880844;29;20147;-73
2022/08/02 05:20:15;;;;;;;3.75;2.25;;;;;;;19.64;65.97;96945.75;4880300;29;20510;-74
2022/08/02 05:22:43;;;;;;;1.85;1.55;;;;;;;19.64;65.87;96945.75;4880767;29;20116;-73
2022/08/02 05:25:11;;;;;;;1.55;1.38;;;;;;;19.63;65.21;96944.13;4880545;29;20482;-74
2022/08/02 05:27:40;;;;;;;1.58;1.00;;;;;;;19.63;65.30;96944.13;4879193;29;20109;-74
2022/08/02 05:30:09;;;;;;;1.20;1.05;;;;;;;19.62;65.20;96931.16;4880137;29;20084;-74
2022/08/02 05:32:43;;;;;;;1.70;1.10;;;;;;;19.61;65.28;96934.81;4880130;29;20107;-73
2022/08/02 05:35:11;;;;;;;0.80;0.80;;;;;;;19.62;66.33;96933.78;4880812;29;20049;-73
2022/08/02 05:37:39;;;;;;;1.35;1.20;;;;;;;19.64;65.82;96935.16;4862470;29;20053;-73
2022/08/02 05:40:10;;;;;;;1.10;1.10;;;;;;;19.67;65.84;96932.03;4876697;29;20466;-73
2022/08/02 05:42:41;;;;;;;1.45;1.20;;;;;;;19.68;65.76;96931.03;4888103;29;20525;-73
2022/08/02 05:45:09;;;;;;;1.50;1.30;;;;;;;19.71;66.00;96943.81;4879669;29;20059;-73
2022/08/02 05:47:37;;;;;;;1.63;1.23;;;;;;;19.71;65.90;96933.22;4879995;29;20089;-73
2022/08/02 05:50:08;;;;;;;3.70;1.63;;;;;;;19.72;66.61;96931.38;4876789;29;20045;-73
2022/08/02 05:52:45;;;;;;;3.85;2.40;;;;;;;19.75;66.90;96920.34;4872566;29;20092;-72
2022/08/02 05:55:17;;;;;;;1.92;1.70;;;;;;;19.79;67.08;96918.03;4879297;29;20060;-73
2022/08/02 05:57:53;;;;;;;1.80;1.67;;;;;;;19.84;67.49;96929.53;4890729;29;20139;-73
2022/08/02 06:00:21;;;;;;;2.88;1.70;;;;;;;19.90;66.89;96927.81;4875268;29;20092;-73
2022/08/02 07:23:44;;;;;;;4.32;3.22;;;;;;;21.16;64.52;96951.63;3201246;23;20080;-78
2022/08/02 07:26:11;;;;;;;3.13;2.75;;;;;;;21.24;64.44;96942.47;4900032;29;20143;-78
2022/08/02 07:28:41;;;;;;;6.63;3.60;;;;;;;21.31;63.83;96940.44;4900546;29;20156;-77
2022/08/02 07:31:09;;;;;;;5.32;3.42;;;;;;;21.37;63.38;96946.66;4893657;29;20040;-76
2022/08/02 07:33:36;;;;;;;3.63;3.33;;;;;;;21.45;63.14;96950.75;4881119;29;20052;-76
2022/08/02 07:36:08;;;;;;;5.40;4.20;;;;;;;21.52;62.61;96940.81;4881146;29;20057;-76
2022/08/02 07:39:07;;;;;;;5.43;3.97;;;;;;;21.61;62.79;96936.69;4901807;29;20044;-79
2022/08/02 07:56:23;;;;;;;7.32;3.63;;;;;;;22.09;60.82;96940.50;5756232;23;21487;-74
2022/08/02 07:58:51;;;;;;;3.80;3.35;;;;;;;22.18;60.78;96944.34;4892748;29;20123;-76
2022/08/02 08:01:19;;;;;;;3.47;3.15;;;;;;;22.25;60.65;96935.41;4896586;29;20139;-75
2022/08/02 08:03:46;;;;;;;5.97;4.20;;;;;;;22.33;60.29;96948.25;4894381;29;20091;-75
2022/08/02 08:06:14;;;;;;;5.25;4.00;;;;;;;22.38;59.39;96943.00;4897731;29;20128;-76
2022/08/02 08:08:42;;;;;;;4.45;4.03;;;;;;;22.42;59.18;96939.59;4907007;29;20538;-73
2022/08/02 08:11:10;;;;;;;5.57;3.97;;;;;;;22.48;59.21;96940.47;4917351;29;20190;-73
2022/08/02 08:13:39;;;;;;;4.93;3.58;;;;;;;22.53;58.82;96943.16;4902264;29;20056;-76
2022/08/02 08:16:06;;;;;;;4.32;3.92;;;;;;;22.61;58.94;96929.44;4900051;29;20473;-75
2022/08/02 08:18:35;;;;;;;3.83;3.53;;;;;;;22.67;58.93;96937.44;4896952;29;20536;-75
2022/08/02 08:21:02;;;;;;;5.55;3.78;;;;;;;22.75;58.78;96939.66;4896097;29;20056;-75
2022/08/02 08:23:30;;;;;;;7.38;4.10;;;;;;;22.81;58.38;96943.97;4896526;29;20064;-76
2022/08/02 08:25:58;;;;;;;4.13;3.35;;;;;;;22.87;58.00;96932.34;4898249;29;20059;-76
2022/08/02 08:28:25;;;;;;;5.82;4.18;;;;;;;22.94;57.69;96938.25;4905308;29;20053;-75
2022/08/02 08:30:54;;;;;;;4.78;3.70;;;;;;;23.02;57.65;96944.97;4898744;29;20091;-75
2022/08/02 08:33:22;;;;;;;7.00;3.88;;;;;;;23.09;57.57;96937.63;4899002;29;20056;-73
2022/08/02 08:35:50;;;;;;;3.67;2.83;;;;;;;23.16;57.35;96945.38;4898366;29;20057;-74
2022/08/02 08:38:17;;;;;;;6.10;3.40;;;;;;;23.22;56.82;96939.84;4895403;29;20509;-73
2022/08/02 08:40:46;;;;;;;4.05;3.65;;;;;;;23.30;57.07;96943.88;4896370;29;20132;-73
2022/08/02 08:43:14;;;;;;;3.97;3.40;;;;;;;23.36;56.90;96945.53;4912522;29;20067;-74
2022/08/02 08:45:43;;;;;;;4.38;3.70;;;;;;;23.42;56.26;96949.84;4919035;29;20068;-71
2022/08/02 08:48:25;;;;;;;5.63;3.42;;;;;;;23.50;56.32;96959.19;4912671;29;20096;-73
2022/08/02 08:51:04;;;;;;;6.80;2.72;;;;;;;23.56;56.08;96950.19;4908675;29;20142;-74
2022/08/02 08:53:36;;;;;;;3.90;3.15;;;;;;;23.63;55.78;96948.09;4901390;29;20087;-74
2022/08/02 08:56:04;;;;;;;4.18;3.35;;;;;;;23.74;55.64;96948.97;4903197;29;20056;-73
2022/08/02 08:58:32;;;;;;;6.40;3.47;;;;;;;23.82;55.19;96956.50;4896774;29;20449;-73
2022/08/02 09:00:59;;;;;;;3.78;2.97;;;;;;;23.90;55.17;96949.91;4898886;29;20112;-74
2022/08/02 09:03:28;;;;;;;3.60;3.30;;;;;;;23.98;54.69;96951.25;4900889;29;20052;-74
2022/08/02 09:06:01;;;;;;;4.00;2.70;;;;;;;24.06;54.33;96951.56;4899908;29;20053;-74
2022/08/02 09:08:31;;;;;;;4.78;2.72;;;;;;;24.15;53.90;96945.75;4899366;29;20186;-74
2022/08/02 09:11:00;;;;;;;6.53;3.17;;;;;;;24.23;53.74;96950.59;4902587;29;20138;-75
2022/08/02 09:13:29;;;;;;;4.32;2.95;;;;;;;24.31;53.65;96955.41;4903700;29;20059;-74
2022/08/02 09:16:12;;;;;;;4.80;2.55;;;;;;;24.39;53.56;96964.78;4899374;29;20580;-74
2022/08/02 09:18:44;;;;;;;3.53;3.03;;;;;;;24.45;52.94;96956.53;4899284;29;20655;-74
2022/08/02 09:21:14;;;;;;;6.13;3.20;;;;;;;24.52;52.90;96958.97;4899427;29;20519;-74
2022/08/02 09:23:44;;;;;;;2.67;2.47;;;;;;;24.58;52.54;96952.59;4898608;29;20052;-75
2022/08/02 09:26:13;;;;;;;2.50;2.30;;;;;;;24.64;52.38;96956.06;4899244;29;20481;-74
2022/08/02 09:28:44;;;;;;;2.75;2.10;;;;;;;24.70;52.57;96955.00;4899458;29;20056;-74
2022/08/02 09:31:16;;;;;;;3.50;2.60;;;;;;;24.76;52.20;96945.97;4899222;29;20056;-75
2022/08/02 09:33:51;;;;;;;2.60;2.33;;;;;;;24.86;52.09;96946.00;4899892;29;20087;-74
2022/08/02 09:36:19;;;;;;;4.88;2.58;;;;;;;24.94;51.66;96952.66;4899336;29;20084;-75
2022/08/02 09:38:54;;;;;;;4.05;2.40;;;;;;;24.98;50.64;96948.38;4899120;29;20052;-74
2022/08/02 09:41:24;;;;;;;2.95;2.10;;;;;;;25.05;51.06;96948.13;4898795;29;20477;-74
2022/08/02 09:43:53;;;;;;;2.20;2.00;;;;;;;25.14;50.86;96948.41;4899244;29;20062;-75
2022/08/02 09:46:36;;;;;;;2.30;2.10;;;;;;;25.21;50.31;96940.94;4898789;29;20056;-74
2022/08/02 09:49:07;;;;;;;3.08;1.50;;;;;;;25.28;49.59;96942.28;4898620;29;20076;-74
2022/08/02 09:51:38;;;;;;;3.08;2.35;;;;;;;25.36;49.17;96938.28;4898572;29;20056;-74
2022/08/02 09:54:07;;;;;;;2.50;2.30;;;;;;;25.42;49.61;96939.88;4898821;29;20619;-74
2022/08/02 09:56:45;;;;;;;3.05;2.63;;;;;;;25.52;49.44;96930.25;4898279;29;20117;-76
2022/08/02 09:59:14;;;;;;;2.35;2.03;;;;;;;25.57;49.52;96927.56;4902328;29;20056;-75
2022/08/02 10:01:43;;;;;;;2.95;2.00;;;;;;;25.66;49.22;96928.63;4898518;29;20722;-75
2022/08/02 10:04:23;;;;;;;2.53;1.88;;;;;;;25.75;47.46;96934.22;4911752;29;20036;-74
2022/08/02 10:06:53;;;;;;;3.03;1.65;;;;;;;25.83;47.62;96931.78;4919048;29;20069;-75
2022/08/02 10:09:22;;;;;;;2.60;1.42;;;;;;;25.96;47.17;96929.66;4919636;29;20063;-74
2022/08/02 10:11:51;;;;;;;2.63;1.63;;;;;;;26.06;48.00;96924.25;4901331;29;20128;-72
2022/08/02 10:14:20;;;;;;;3.95;1.75;;;;;;;26.15;47.57;96927.97;4899081;29;20615;-71
2022/08/02 10:16:48;;;;;;;3.58;1.70;;;;;;;26.25;46.58;96925.25;4899289;29;20079;-75
2022/08/02 10:19:16;;;;;;;1.13;1.00;;;;;;;26.36;43.82;96926.00;4898670;29;20087;-73
2022/08/02 10:21:49;;;;;;;7.93;1.70;;;;;;;26.45;44.20;96926.22;4898183;29;20112;-74
2022/08/02 10:24:20;;;;;;;0.75;0.75;;;;;;;26.54;43.20;96918.41;4898016;29;20096;-74
2022/08/02 10:26:49;;;;;;;15.43;1.90;;;;;;;26.63;43.47;96919.44;4898648;29;20116;-74
2022/08/02 10:29:19;;;;;;;2.13;1.27;;;;;;;26.75;42.79;96919.13;4897415;29;20378;-73
2022/08/02 10:31:51;;;;;;;2.70;1.55;;;;;;;26.85;42.26;96921.72;4897613;29;20131;-73
2022/08/02 10:34:23;;;;;;;1.40;1.30;;;;;;;26.95;41.90;96916.28;4897843;29;20100;-74
2022/08/02 10:37:02;;;;;;;2.38;1.42;;;;;;;27.05;42.74;96921.56;4897849;29;20060;-74
2022/08/02 10:39:38;;;;;;;2.22;1.00;;;;;;;27.15;42.07;96915.31;4898083;29;20512;-74
2022/08/02 10:42:06;;;;;;;0.95;0.88;;;;;;;27.22;41.50;96907.00;4898070;29;20092;-74
2022/08/02 10:44:35;;;;;;;1.95;1.20;;;;;;;27.32;41.74;96906.91;4898282;29;20052;-74
2022/08/02 10:47:23;;;;;;;1.02;0.80;;;;;;;27.41;40.82;96896.38;4898793;29;20087;-75
2022/08/02 10:49:53;;;;;;;1.33;0.90;;;;;;;27.47;39.60;96892.59;4898791;29;20091;-74
2022/08/02 10:52:23;;;;;;;0.68;0.68;;;;;;;27.51;39.71;96893.63;4898709;29;20063;-75
2022/08/02 10:54:55;;;;;;;2.15;0.85;;;;;;;27.57;39.18;96902.38;4898079;29;20056;-75
2022/08/02 10:57:25;;;;;;;1.95;1.08;;;;;;;27.63;39.84;96890.53;4898507;29;20140;-75
2022/08/02 10:59:56;;;;;;;3.95;1.20;;;;;;;27.70;39.89;96893.66;4899677;29;20116;-75
2022/08/02 11:02:38;;;;;;;1.38;1.15;;;;;;;27.78;39.80;96892.25;4898767;29;20512;-76
2022/08/02 11:05:16;;;;;;;;;;;;;;;27.86;40.25;96895.13;4897959;29;20130;-75
2022/08/02 11:07:46;;;;;;;1.23;0.70;;;;;;;27.93;39.23;96895.59;4884561;29;19971;-73
2022/08/02 11:10:37;;;;;;;2.95;1.40;;;;;;;28.02;38.82;96901.09;4897587;29;20068;-74
2022/08/02 11:13:13;;;;;;;1.85;1.30;;;;;;;28.09;38.94;96892.72;4898523;29;20053;-75
2022/08/02 11:15:55;;;;;;;1.30;1.25;;;;;;;28.18;39.00;96885.63;4900152;29;20083;-75
2022/08/02 11:19:03;;;;;;;2.40;1.23;;;;;;;28.28;38.63;96882.00;4897170;29;20060;-78
2022/08/02 11:21:34;;;;;;;1.70;1.40;;;;;;;28.37;38.55;96882.16;4887517;29;20417;-77
2022/08/02 11:24:27;;;;;;;1.40;1.30;;;;;;;28.44;38.63;96874.53;4896873;29;20092;-75
2022/08/02 11:26:56;;;;;;;2.20;2.00;;;;;;;28.52;38.92;96871.25;4897263;29;20056;-76
2022/08/02 11:29:32;;;;;;;1.25;1.15;;;;;;;28.59;37.91;96868.97;4896543;29;20091;-76
2022/08/02 11:32:06;;;;;;;1.35;1.25;;;;;;;28.65;38.06;96864.34;4896495;29;20048;-75
2022/08/02 11:34:33;;;;;;;1.48;1.38;;;;;;;28.69;38.19;96868.84;4896559;29;20049;-75
2022/08/02 11:37:04;;;;;;;1.90;1.43;;;;;;;28.79;38.38;96867.88;4889371;29;20053;-76
2022/08/02 11:39:33;;;;;;;1.75;1.65;;;;;;;28.88;37.39;96868.00;4896571;29;20447;-76
2022/08/02 11:42:01;;;;;;;1.20;1.10;;;;;;;28.92;36.66;96858.28;4896157;29;20569;-75
2022/08/02 11:44:30;;;;;;;1.20;1.10;;;;;;;28.94;36.73;96858.78;4896513;29;20079;-75
2022/08/02 11:47:00;;;;;;;1.40;1.30;;;;;;;28.98;36.95;96865.16;4896800;29;20568;-75
2022/08/02 11:49:28;;;;;;;1.00;1.00;;;;;;;29.00;36.55;96854.91;4896059;29;20116;-76
2022/08/02 11:52:00;;;;;;;1.13;1.02;;;;;;;29.05;36.49;96860.19;4896487;29;20139;-77
2022/08/02 11:54:30;;;;;;;2.38;1.30;;;;;;;29.12;36.18;96854.47;4896986;29;20056;-76
2022/08/02 11:57:16;;;;;;;1.73;1.30;;;;;;;29.16;36.69;96855.47;4896581;29;20049;-76
2022/08/02 11:59:49;;;;;;;1.35;1.25;;;;;;;29.15;36.06;96859.28;4896399;29;20493;-76
2022/08/02 12:02:18;;;;;;;1.27;1.10;;;;;;;29.14;36.42;96847.69;4896327;29;20082;-76
2022/08/02 12:04:52;;;;;;;1.73;0.98;;;;;;;29.14;35.73;96847.69;4898166;29;20135;-76
2022/08/02 12:07:28;;;;;;;0.90;0.90;;;;;;;29.18;36.03;96853.28;4898161;29;20405;-76
2022/08/02 12:10:05;;;;;;;1.33;1.25;;;;;;;29.17;35.80;96841.75;4896995;29;20048;-77
2022/08/02 12:12:47;;;;;;;2.20;1.13;;;;;;;29.17;35.82;96847.13;4898363;29;20120;-76
2022/08/02 12:15:16;;;;;;;1.10;1.10;;;;;;;29.17;35.46;96847.13;4897435;29;20478;-75
2022/08/02 12:20:35;;;;;;;1.13;1.10;;;;;;;29.22;36.17;96848.13;4895694;29;20448;-76
2022/08/02 12:23:03;;;;;;;;;;;;;;;29.25;36.27;96847.53;4896742;29;20139;-75
2022/08/02 12:25:31;;;;;;;1.35;1.25;;;;;;;29.24;35.71;96843.25;4896328;29;19923;-76
2022/08/02 12:28:17;;;;;;;2.17;0.75;;;;;;;29.24;34.71;96845.94;4904591;29;20418;-74
2022/08/02 12:30:53;;;;;;;1.73;0.82;;;;;;;29.25;34.97;96847.53;4896728;29;20123;-75
2022/08/02 12:33:22;;;;;;;2.92;1.10;;;;;;;29.29;35.11;96843.16;4897862;29;20418;-76
2022/08/02 12:35:50;;;;;;;1.52;0.82;;;;;;;29.34;35.19;96845.75;4898028;29;20048;-75
2022/08/02 12:38:18;;;;;;;2.17;0.93;;;;;;;29.35;35.31;96840.09;4899239;29;20092;-76
2022/08/02 12:40:46;;;;;;;1.20;1.10;;;;;;;29.39;35.13;96845.66;4899783;29;20496;-76
2022/08/02 12:43:20;;;;;;;1.08;1.08;;;;;;;29.40;34.41;96849.94;4899447;29;20131;-76
2022/08/02 12:45:51;;;;;;;4.60;1.67;;;;;;;29.38;34.42;96836.00;4900036;29;20045;-76
2022/08/02 12:48:34;;;;;;;0.97;0.97;;;;;;;29.36;34.60;96832.81;4899751;29;20057;-76
2022/08/02 12:51:22;;;;;;;3.13;0.90;;;;;;;29.36;34.52;96833.59;4899298;29;20283;-75
2022/08/02 12:53:51;;;;;;;1.85;0.65;;;;;;;29.37;34.76;96829.06;4899435;29;20052;-76
2022/08/02 12:56:28;;;;;;;1.10;0.95;;;;;;;29.38;34.25;96825.25;4898884;29;20473;-76
2022/08/02 12:58:57;;;;;;;0.68;0.68;;;;;;;29.36;34.24;96822.06;4899899;29;20087;-76
2022/08/02 13:01:26;;;;;;;0.90;0.90;;;;;;;29.31;34.06;96822.97;4899102;29;20131;-76
2022/08/02 13:03:55;;;;;;;1.25;0.93;;;;;;;29.29;34.11;96816.28;4901175;29;20056;-76
2022/08/02 13:06:38;;;;;;;0.63;0.63;;;;;;;29.30;34.19;96812.50;4904997;29;20056;-77
2022/08/02 13:09:15;;;;;;;2.53;1.10;;;;;;;29.32;34.54;96818.38;4899853;29;20131;-75
2022/08/02 13:11:44;;;;;;;2.85;0.70;;;;;;;29.32;33.86;96815.69;4910778;29;20056;-75
2022/08/02 13:14:14;;;;;;;1.75;0.68;;;;;;;29.34;33.53;96824.25;4918289;29;20103;-76
2022/08/02 13:16:43;;;;;;;0.70;0.70;;;;;;;29.36;33.22;96814.00;4901309;29;20088;-75
2022/08/02 13:19:14;;;;;;;0.70;0.70;;;;;;;29.37;32.86;96816.41;4897742;29;20072;-76
2022/08/02 13:21:42;;;;;;;1.98;0.70;;;;;;;29.38;33.19;96814.50;4898622;29;20056;-76
2022/08/02 13:24:30;;;;;;;2.45;0.90;;;;;;;29.40;32.79;96817.69;4898830;29;20477;-76
2022/08/02 13:27:06;;;;;;;1.58;0.80;;;;;;;29.39;32.43;96805.38;4907385;29;20577;-75
2022/08/02 13:29:37;;;;;;;0.95;0.80;;;;;;;29.39;32.25;96810.75;4913387;29;20513;-76
2022/08/02 13:32:05;;;;;;;1.10;0.63;;;;;;;29.38;32.30;96806.44;4888956;29;20045;-76